createdAt,value
2022-12-24T00:02:22.323Z,98678.84
2022-12-24T00:07:23.811Z,98698.50
2022-12-24T00:12:25.204Z,98706.44
2022-12-24T00:17:26.613Z,98714.63
2022-12-24T00:22:27.987Z,98715.44
2022-12-24T00:27:29.381Z,98726.34
2022-12-24T00:32:30.769Z,98730.47
2022-12-24T00:37:32.151Z,98744.66
2022-12-24T00:42:33.529Z,98738.13
2022-12-24T00:47:34.894Z,98720.06
2022-12-24T00:52:36.291Z,98720.91
2022-12-24T00:57:37.683Z,98726.66
2022-12-24T01:02:39.171Z,98731.00
2022-12-24T01:07:43.807Z,98736.72
2022-12-24T01:12:45.409Z,98744.09
2022-12-24T01:17:46.792Z,98770.03
2022-12-24T01:22:48.871Z,98771.94
2022-12-24T01:27:50.294Z,98772.50
2022-12-24T01:32:51.679Z,98803.34
2022-12-24T01:37:53.066Z,98819.44
2022-12-24T01:43:13.252Z,98794.09
2022-12-24T01:48:16.394Z,98808.00
2022-12-24T01:53:17.789Z,98811.00
2022-12-24T01:58:19.182Z,98827.09
2022-12-24T02:03:20.710Z,98843.19
2022-12-24T02:08:22.229Z,98838.31
2022-12-24T02:13:23.621Z,98835.28
2022-12-24T02:18:46.111Z,98842.13
2022-12-24T02:23:57.066Z,98838.84
2022-12-24T02:29:14.237Z,98848.94
2022-12-24T02:34:31.860Z,98868.06
2022-12-24T02:39:43.491Z,98872.69
2022-12-24T02:44:49.878Z,98882.28
2022-12-24T02:49:51.290Z,98888.00
2022-12-24T02:54:52.675Z,98882.53
2022-12-24T02:59:59.230Z,98890.19
2022-12-24T03:05:24.793Z,98914.75
2022-12-24T03:10:44.314Z,98899.44
2022-12-24T03:15:46.229Z,98910.38
2022-12-24T03:21:14.324Z,98913.94
2022-12-24T03:26:16.884Z,98931.13
2022-12-24T03:31:18.767Z,98922.38
2022-12-24T03:36:20.232Z,98918.56
2022-12-24T03:41:21.601Z,98934.16
2022-12-24T03:46:23.028Z,98937.16
2022-12-24T03:51:24.745Z,98938.78
2022-12-24T03:56:26.262Z,98937.38
2022-12-24T04:01:27.740Z,98957.84
2022-12-24T04:06:29.224Z,98964.72
2022-12-24T04:11:31.189Z,98961.47
2022-12-24T04:16:32.639Z,98965.28
2022-12-24T04:21:34.034Z,98980.28
2022-12-24T04:26:35.424Z,98975.06
2022-12-24T04:31:36.950Z,98980.00
2022-12-24T04:36:38.404Z,98986.81
2022-12-24T04:41:39.783Z,99008.16
2022-12-24T04:46:42.231Z,99010.06
2022-12-24T04:51:43.642Z,99034.63
2022-12-24T04:56:45.039Z,99014.94
2022-12-24T05:01:46.525Z,99033.25
2022-12-24T05:06:47.984Z,99037.94
2022-12-24T05:11:49.415Z,99062.22
2022-12-24T05:16:50.888Z,99055.94
2022-12-24T05:22:10.664Z,99073.66
2022-12-24T05:27:13.202Z,99083.47
2022-12-24T05:32:14.595Z,99084.28
2022-12-24T05:37:15.968Z,99084.06
2022-12-24T05:42:17.338Z,99088.69
2022-12-24T05:47:18.717Z,99097.69
2022-12-24T05:52:20.095Z,99105.88
2022-12-24T05:57:21.474Z,99107.25
2022-12-24T06:02:22.882Z,99114.09
2022-12-24T06:07:24.268Z,99126.69
2022-12-24T06:12:25.666Z,99143.63
2022-12-24T06:17:27.050Z,99170.31
2022-12-24T06:22:28.427Z,99165.38
2022-12-24T06:27:29.820Z,99173.28
2022-12-24T06:32:31.215Z,99187.75
2022-12-24T06:37:32.604Z,99184.78
2022-12-24T06:42:33.973Z,99192.47
2022-12-24T06:47:35.423Z,99208.81
2022-12-24T06:52:36.809Z,99207.97
2022-12-24T06:57:38.205Z,99226.78
2022-12-24T07:02:40.987Z,99224.66
2022-12-24T07:07:43.667Z,99254.97
2022-12-24T07:12:45.085Z,99238.84
2022-12-24T07:17:46.637Z,99254.41
2022-12-24T07:22:48.073Z,99268.03
2022-12-24T07:27:49.451Z,99269.13
2022-12-24T07:32:51.479Z,99266.16
2022-12-24T07:37:52.868Z,99282.28
2022-12-24T07:42:54.301Z,99287.50
2022-12-24T07:47:55.684Z,99306.81
2022-12-24T07:52:57.054Z,99297.50
2022-12-24T07:57:58.438Z,99312.03
2022-12-24T08:03:00.431Z,99321.09
2022-12-24T08:08:02.004Z,99320.25
2022-12-24T08:13:03.453Z,99325.97
2022-12-24T08:18:04.949Z,99340.97
2022-12-24T08:23:07.019Z,99357.03
2022-12-24T08:28:08.402Z,99358.97
2022-12-24T08:33:09.870Z,99360.41
2022-12-24T08:38:11.252Z,99385.81
2022-12-24T08:43:12.675Z,99381.69
2022-12-24T08:48:14.055Z,99401.31
2022-12-24T08:53:15.468Z,99422.56
2022-12-24T08:58:16.868Z,99422.38
2022-12-24T09:03:25.071Z,99434.41
2022-12-24T09:08:28.952Z,99435.00
2022-12-24T09:13:30.358Z,99442.00
2022-12-24T09:18:31.757Z,99444.16
2022-12-24T09:23:35.089Z,99454.53
2022-12-24T09:28:36.493Z,99455.41
2022-12-24T09:33:39.495Z,99454.06
2022-12-24T09:38:40.958Z,99475.38
2022-12-24T09:43:46.819Z,99493.88
2022-12-24T09:48:49.334Z,99507.22
2022-12-24T09:53:53.523Z,99505.63
2022-12-24T09:58:59.766Z,99507.34
2022-12-24T10:04:06.969Z,99530.28
2022-12-24T10:10:01.030Z,99533.00
2022-12-24T10:15:10.502Z,99532.38
2022-12-24T10:20:18.610Z,99542.72
2022-12-24T10:25:27.196Z,99553.22
2022-12-24T10:30:28.712Z,99559.75
2022-12-24T10:35:33.775Z,99558.41
2022-12-24T10:40:40.642Z,99556.19
2022-12-24T10:45:44.010Z,99549.84
2022-12-24T10:51:07.616Z,99561.09
2022-12-24T10:56:11.226Z,99559.50
2022-12-24T11:01:12.819Z,99573.97
2022-12-24T11:06:15.734Z,99583.50
2022-12-24T11:11:19.990Z,99583.75
2022-12-24T11:16:32.460Z,99586.66
2022-12-24T11:21:38.514Z,99588.06
2022-12-24T11:26:43.274Z,99593.84
2022-12-24T11:31:44.731Z,99600.72
2022-12-24T11:36:46.144Z,99604.84
2022-12-24T11:41:48.213Z,99595.03
2022-12-24T11:46:52.834Z,99611.56
2022-12-24T11:52:09.538Z,99623.06
2022-12-24T11:57:11.412Z,99638.13
2022-12-24T12:02:36.774Z,99632.44
2022-12-24T12:07:38.235Z,99639.84
2022-12-24T12:12:47.144Z,99637.06
2022-12-24T12:18:00.213Z,99644.09
2022-12-24T12:23:04.460Z,99651.22
2022-12-24T12:28:07.650Z,99652.38
2022-12-24T12:33:27.234Z,99644.47
2022-12-24T12:38:31.678Z,99650.44
2022-12-24T12:44:01.347Z,99663.47
2022-12-24T12:49:21.329Z,99670.81
2022-12-24T12:55:07.623Z,99670.66
2022-12-24T13:00:10.925Z,99662.19
2022-12-24T13:05:18.411Z,99646.66
2022-12-24T13:10:32.776Z,99667.16
2022-12-24T13:16:14.980Z,99667.03
2022-12-24T13:21:18.508Z,99663.19
2022-12-24T13:26:19.949Z,99670.66
2022-12-24T13:31:21.206Z,99668.22
2022-12-24T13:36:22.616Z,99677.53
2022-12-24T13:41:41.410Z,99676.94
2022-12-24T13:47:06.490Z,99686.13
2022-12-24T13:52:08.464Z,99687.22
2022-12-24T13:57:32.415Z,99697.47
2022-12-24T14:02:37.349Z,99694.47
2022-12-24T14:07:38.868Z,99693.06
2022-12-24T14:12:48.548Z,99696.81
2022-12-24T14:17:49.930Z,99703.03
2022-12-24T14:22:51.339Z,99708.78
2022-12-24T14:28:00.877Z,99714.59
2022-12-24T14:33:02.438Z,99730.75
2022-12-24T14:38:05.363Z,99742.50
2022-12-24T14:43:26.411Z,99737.75
2022-12-24T14:48:48.954Z,99749.75
2022-12-24T14:53:57.657Z,99751.41
2022-12-24T14:59:04.423Z,99753.44
2022-12-24T15:04:16.534Z,99771.22
2022-12-24T15:09:24.102Z,99765.41
2022-12-24T15:14:26.411Z,99778.72
2022-12-24T15:19:30.934Z,99783.84
2022-12-24T15:24:34.296Z,99794.78
2022-12-24T15:29:39.282Z,99791.91
2022-12-24T15:34:44.892Z,99788.09
2022-12-24T15:40:19.856Z,99800.09
2022-12-24T15:45:28.526Z,99809.84
2022-12-24T15:50:31.807Z,99818.53
2022-12-24T15:55:39.321Z,99819.47
2022-12-24T16:00:40.699Z,99816.25
2022-12-24T16:05:42.084Z,99832.38
2022-12-24T16:10:47.458Z,99844.84
2022-12-24T16:15:57.056Z,99867.19
2022-12-24T16:20:58.465Z,99877.53
2022-12-24T16:25:59.901Z,99865.63
2022-12-24T16:31:01.367Z,99888.06
2022-12-24T16:36:02.833Z,99889.16
2022-12-24T16:41:04.627Z,99908.50
2022-12-24T16:46:06.459Z,99914.72
2022-12-24T16:51:07.903Z,99912.56
2022-12-24T16:56:09.387Z,99910.41
2022-12-24T17:01:10.971Z,99906.13
2022-12-24T17:06:12.459Z,99914.56
2022-12-24T17:11:13.875Z,99919.06
2022-12-24T17:16:15.256Z,99919.56
2022-12-24T17:21:17.126Z,99928.09
2022-12-24T17:26:18.529Z,99937.22
2022-12-24T17:31:20.037Z,99942.69
2022-12-24T17:36:21.453Z,99943.44
2022-12-24T17:41:22.851Z,99943.09
2022-12-24T17:46:24.341Z,99952.47
2022-12-24T17:51:25.770Z,99952.19
2022-12-24T17:56:27.385Z,99953.63
2022-12-24T18:01:31.745Z,99959.56
2022-12-24T18:06:33.308Z,99978.00
2022-12-24T18:11:38.726Z,99978.09
2022-12-24T18:16:40.421Z,99996.50
2022-12-24T18:21:41.883Z,99987.22
2022-12-24T18:26:43.443Z,99989.59
2022-12-24T18:31:44.875Z,99992.72
2022-12-24T18:36:49.718Z,100001.00
2022-12-24T18:41:56.137Z,99998.41
2022-12-24T18:46:57.671Z,99989.72
2022-12-24T18:51:59.075Z,100001.97
2022-12-24T18:57:00.455Z,99998.28
2022-12-24T19:02:02.463Z,99996.72
2022-12-24T19:07:03.975Z,99989.97
2022-12-24T19:12:05.566Z,99997.31
2022-12-24T19:17:06.954Z,100007.91
2022-12-24T19:22:08.356Z,100020.13
2022-12-24T19:27:09.790Z,100024.53
2022-12-24T19:32:11.181Z,100026.03
2022-12-24T19:37:12.725Z,100022.50
2022-12-24T19:42:14.133Z,100028.69
2022-12-24T19:47:15.519Z,100036.28
2022-12-24T19:52:16.921Z,100036.88
2022-12-24T19:57:18.307Z,100034.50
2022-12-24T20:02:19.835Z,100040.53
2022-12-24T20:07:21.377Z,100054.09
2022-12-24T20:12:22.771Z,100063.81
2022-12-24T20:17:24.150Z,100075.38
2022-12-24T20:22:25.538Z,100086.66
2022-12-24T20:27:26.982Z,100081.50
2022-12-24T20:32:29.607Z,100086.41
2022-12-24T20:37:31.071Z,100082.13
2022-12-24T20:42:32.466Z,100083.09
2022-12-24T20:47:33.909Z,100085.56
2022-12-24T20:52:35.304Z,100094.59
2022-12-24T20:57:36.967Z,100085.56
2022-12-24T21:02:38.579Z,100083.31
2022-12-24T21:07:40.557Z,100079.75
2022-12-24T21:12:58.737Z,100086.88
2022-12-24T21:18:00.197Z,100083.19
2022-12-24T21:23:01.707Z,100086.41
2022-12-24T21:28:03.121Z,100100.06
2022-12-24T21:33:04.525Z,100100.53
2022-12-24T21:38:05.918Z,100100.06
2022-12-24T21:43:09.911Z,100099.31
2022-12-24T21:48:31.260Z,100116.19
2022-12-24T21:53:51.226Z,100116.91
2022-12-24T21:58:52.667Z,100120.97
2022-12-24T22:03:54.047Z,100127.84
2022-12-24T22:09:14.802Z,100134.25
2022-12-24T22:14:16.594Z,100134.25
2022-12-24T22:19:18.150Z,100130.09
2022-12-24T22:24:19.560Z,100143.66
2022-12-24T22:29:20.981Z,100158.47
2022-12-24T22:34:22.359Z,100160.50
2022-12-24T22:39:23.747Z,100163.47
2022-12-24T22:44:25.248Z,100161.19
2022-12-24T22:49:26.622Z,100185.94
2022-12-24T22:54:28.026Z,100180.56
2022-12-24T22:59:29.399Z,100189.47
2022-12-24T23:04:35.233Z,100199.59
2022-12-24T23:09:36.559Z,100206.00
2022-12-24T23:14:58.197Z,100213.56
2022-12-24T23:20:01.359Z,100210.03
2022-12-24T23:25:02.822Z,100227.97
2022-12-24T23:30:04.527Z,100227.97
2022-12-24T23:35:06.538Z,100229.50
2022-12-24T23:40:08.538Z,100221.56
2022-12-24T23:45:10.076Z,100213.94
2022-12-24T23:50:11.539Z,100229.03
2022-12-24T23:55:12.920Z,100234.50
